Time;durP1;ratioP1;P1;durP2;ratioP2;P2;SDS_P1;SDS_P2;PMS_P1;PMS_P2;Temp;Humidity;BMP_temperature;BMP_pressure;BME280_temperature;BME280_humidity;BME280_pressure;Samples;Min_cycle;Max_cycle;Signal;HPM_P1;HPM_P2
2022/02/08 00:02:43;;;;;;;7.83;3.13;;;;;;;4.96;64.52;101514.34;10314025;28;20133;-63
2022/02/08 00:07:48;;;;;;;4.68;2.38;;;;;;;4.94;64.33;101497.72;10317287;28;20048;-63
2022/02/08 00:12:49;;;;;;;8.77;2.28;;;;;;;4.98;64.27;101514.28;10331412;28;20500;-64
2022/02/08 00:17:51;;;;;;;7.53;2.17;;;;;;;4.94;64.08;101495.94;10313938;28;20333;-63
2022/02/08 00:22:52;;;;;;;5.88;1.92;;;;;;;5.00;64.24;101512.44;10317741;28;20049;-63
2022/02/08 00:27:57;;;;;;;5.63;2.13;;;;;;;5.02;63.44;101521.19;10320096;28;20411;-63
2022/02/08 00:32:58;;;;;;;8.10;1.90;;;;;;;4.97;63.74;101508.16;10327672;28;20049;-63
2022/02/08 00:38:00;;;;;;;7.57;2.15;;;;;;;5.08;63.98;101513.03;10318894;28;20038;-63
2022/02/08 00:43:02;;;;;;;5.72;1.75;;;;;;;5.11;63.19;101503.22;10320917;28;20064;-62
2022/02/08 00:48:14;;;;;;;5.60;1.40;;;;;;;5.09;63.77;101501.56;10320348;28;20616;-64
2022/02/08 00:53:17;;;;;;;4.82;1.88;;;;;;;5.14;63.72;101510.16;10320239;28;20042;-62
2022/02/08 00:58:18;;;;;;;6.18;2.42;;;;;;;5.24;63.49;101494.81;10319171;28;20046;-63
2022/02/08 01:03:19;;;;;;;7.85;2.10;;;;;;;5.22;63.76;101501.94;10313481;28;20661;-65
2022/02/08 01:08:28;;;;;;;7.65;3.05;;;;;;;5.14;64.05;101495.19;10317677;28;20054;-64
2022/02/08 01:13:30;;;;;;;6.57;2.58;;;;;;;5.19;64.08;101491.50;10313486;28;20738;-62
2022/02/08 01:18:36;;;;;;;3.63;1.83;;;;;;;5.13;64.15;101487.31;10314354;28;20046;-65
2022/02/08 01:23:38;;;;;;;3.88;2.30;;;;;;;4.86;64.61;101473.38;10314585;28;20413;-60
2022/02/08 01:44:43;;;;;;;7.53;2.58;;;;;;;5.07;65.24;101467.28;10313582;28;23126;-63
2022/02/08 01:50:11;;;;;;;6.18;2.45;;;;;;;4.94;64.82;101445.81;10308525;28;20561;-63
2022/02/08 01:55:13;;;;;;;7.10;2.75;;;;;;;4.96;64.90;101438.66;10309777;28;20057;-63
2022/02/08 02:00:17;;;;;;;6.50;3.03;;;;;;;5.09;64.93;101457.56;10329314;28;20042;-63
2022/02/08 02:05:18;;;;;;;7.05;2.00;;;;;;;5.18;64.21;101442.25;10311134;28;20054;-63
2022/02/08 02:10:20;;;;;;;8.82;2.50;;;;;;;5.26;64.25;101450.75;10314315;28;20076;-63
2022/02/08 02:15:22;;;;;;;6.40;2.33;;;;;;;5.15;64.33;101451.19;10312376;28;20043;-63
2022/02/08 02:20:23;;;;;;;6.57;2.60;;;;;;;5.25;64.52;101455.16;10310917;28;20133;-63
2022/02/08 02:25:27;;;;;;;8.20;2.63;;;;;;;5.23;64.33;101451.72;10311625;28;20064;-64
2022/02/08 02:30:31;;;;;;;10.30;2.53;;;;;;;5.18;64.65;101458.09;10307383;28;20710;-63
2022/02/08 02:35:33;;;;;;;7.73;2.43;;;;;;;5.07;65.40;101443.53;10306113;28;20060;-63
2022/02/08 02:40:36;;;;;;;3.97;2.20;;;;;;;4.98;65.66;101443.88;10315540;28;20046;-63
2022/02/08 02:45:38;;;;;;;6.15;2.60;;;;;;;5.17;65.64;101438.78;10313841;28;20169;-62
2022/02/08 02:50:40;;;;;;;5.10;2.13;;;;;;;5.04;65.21;101424.34;10313415;28;20050;-63
2022/02/08 02:55:41;;;;;;;10.07;3.00;;;;;;;5.17;65.95;101419.44;10312325;28;20103;-62
2022/02/08 03:00:50;;;;;;;5.20;2.90;;;;;;;4.95;66.10;101421.13;10313436;28;20060;-63
2022/02/08 03:06:09;;;;;;;8.23;2.45;;;;;;;5.13;66.68;101442.44;10314808;28;20042;-62
2022/02/08 03:21:51;;;;;;;7.60;3.17;;;;;;;4.97;66.82;101423.72;10312942;28;20551;-62
2022/02/08 03:26:52;;;;;;;7.72;2.67;;;;;;;4.91;67.25;101419.53;10306257;28;20046;-63
2022/02/08 03:31:53;;;;;;;6.28;2.58;;;;;;;5.02;67.53;101420.91;10310228;28;20046;-63
2022/02/08 03:36:55;;;;;;;7.93;3.00;;;;;;;4.93;67.87;101422.97;10310386;28;20060;-63
2022/02/08 03:42:05;;;;;;;7.57;2.67;;;;;;;5.02;67.91;101434.09;10308918;28;20100;-63
2022/02/08 03:47:07;;;;;;;9.23;3.10;;;;;;;5.01;67.77;101437.66;10308437;28;20117;-62
2022/02/08 03:52:08;;;;;;;5.47;2.45;;;;;;;5.02;67.49;101415.63;10307782;28;20050;-62
2022/02/08 03:57:11;;;;;;;5.28;2.40;;;;;;;5.08;67.76;101450.53;10307842;28;20045;-62
2022/02/08 04:07:25;;;;;;;6.28;2.60;;;;;;;5.05;67.89;101441.91;10310424;28;20050;-63
2022/02/08 04:12:36;;;;;;;8.55;2.40;;;;;;;5.00;67.75;101433.28;10307134;28;20076;-63
2022/02/08 04:44:22;;;;;;;6.65;2.53;;;;;;;5.02;69.73;101436.72;10315077;28;20056;-62
2022/02/08 04:49:24;;;;;;;6.85;3.05;;;;;;;5.01;70.87;101427.94;10310371;28;20061;-62
2022/02/08 04:59:52;;;;;;;8.93;2.45;;;;;;;5.22;70.97;101443.88;10318583;28;20050;-63
2022/02/08 05:42:49;;;;;;;11.07;3.67;;;;;;;5.07;72.93;101403.94;10313803;28;20684;-64
2022/02/08 05:47:17;;;;;;;7.72;2.67;;;;;;;5.08;73.20;101396.91;10313009;28;20046;-63
2022/02/08 05:52:44;;;;;;;6.70;2.28;;;;;;;5.09;72.59;101401.28;10311758;28;20049;-63
2022/02/08 05:57:43;;;;;;;6.93;2.67;;;;;;;5.15;72.62;101403.66;10294104;28;20046;-64
2022/02/08 06:02:48;;;;;;;10.85;3.22;;;;;;;5.10;73.99;101408.25;10279480;28;20054;-63
2022/02/08 06:07:49;;;;;;;9.10;2.27;;;;;;;5.16;74.39;101412.44;10301066;28;20504;-63
2022/02/08 06:12:53;;;;;;;11.40;4.93;;;;;;;5.13;74.77;101414.28;10309173;28;20066;-63
2022/02/08 06:17:58;;;;;;;7.97;3.17;;;;;;;5.06;75.09;101418.09;10302908;28;20041;-63
2022/02/08 06:23:01;;;;;;;8.73;2.60;;;;;;;5.03;75.06;101401.47;10305909;28;20050;-65
2022/02/08 06:28:02;;;;;;;9.48;3.42;;;;;;;5.02;75.01;101418.25;10301115;28;20054;-62
2022/02/08 06:33:04;;;;;;;9.90;3.25;;;;;;;5.01;75.41;101422.66;10301552;28;20137;-63
2022/02/08 06:38:09;;;;;;;13.57;3.15;;;;;;;5.04;75.58;101419.06;10298845;28;20053;-62
2022/02/08 06:43:11;;;;;;;;;;;;;;;4.88;78.36;101440.75;10314196;28;20474;-62
2022/02/08 06:48:13;;;;;;;12.05;3.67;;;;;;;4.93;78.76;101424.75;10303862;28;19977;-62
2022/02/08 06:53:14;;;;;;;7.97;3.25;;;;;;;5.02;79.30;101432.31;10302582;28;20064;-62
2022/02/08 06:58:16;;;;;;;7.93;2.88;;;;;;;5.01;87.04;101416.53;10301991;28;20065;-63
2022/02/08 07:03:18;;;;;;;9.13;3.58;;;;;;;4.99;80.51;101437.69;10309149;28;20512;-64
2022/02/08 07:08:19;;;;;;;10.63;3.55;;;;;;;4.73;81.56;101420.25;10309168;28;20813;-64
2022/02/08 07:13:21;;;;;;;12.85;3.53;;;;;;;4.80;81.70;101437.53;10309190;28;20053;-62
2022/02/08 07:18:23;;;;;;;10.40;4.13;;;;;;;4.82;81.37;101435.72;10313562;28;20053;-63
2022/02/08 07:23:24;;;;;;;10.07;3.38;;;;;;;4.75;81.62;101447.41;10309146;28;20064;-61
2022/02/08 07:28:26;;;;;;;11.32;3.80;;;;;;;4.63;80.97;101429.41;10308502;28;21436;-62
2022/02/08 07:33:27;;;;;;;8.65;3.38;;;;;;;4.73;80.42;101442.19;10304033;28;20117;-62
2022/02/08 07:38:35;;;;;;;8.07;3.85;;;;;;;4.79;80.18;101451.66;10305925;28;20054;-62
2022/02/08 07:43:36;;;;;;;8.50;4.60;;;;;;;4.83;80.15;101447.13;10302691;28;20054;-61
2022/02/08 07:48:38;;;;;;;8.45;4.00;;;;;;;4.88;80.03;101445.16;10313652;28;20229;-62
2022/02/08 07:53:40;;;;;;;9.23;3.50;;;;;;;5.02;79.81;101453.41;10319972;28;20058;-62
2022/02/08 07:58:42;;;;;;;7.53;4.38;;;;;;;5.05;79.91;101463.00;10311615;28;20053;-62
2022/02/08 08:03:44;;;;;;;12.73;4.88;;;;;;;4.93;80.58;101464.31;10310045;28;20354;-61
2022/02/08 08:08:46;;;;;;;11.95;4.20;;;;;;;4.94;80.82;101452.88;10312551;28;20486;-61
2022/02/08 08:14:01;;;;;;;14.60;3.95;;;;;;;5.01;80.68;101461.41;10311893;28;20956;-61
2022/02/08 08:24:15;;;;;;;13.63;5.05;;;;;;;5.14;80.70;101467.94;10307997;28;20061;-62
2022/02/08 08:29:17;;;;;;;7.65;3.80;;;;;;;5.13;80.54;101453.00;10320238;28;20063;-62
2022/02/08 08:34:18;;;;;;;8.88;4.22;;;;;;;5.30;80.09;101462.94;10318049;28;20050;-62
2022/02/08 08:39:22;;;;;;;11.13;4.28;;;;;;;5.41;80.12;101473.06;10309359;28;20389;-61
2022/02/08 08:50:31;;;;;;;18.85;5.00;;;;;;;5.45;80.36;101472.88;10312727;28;20126;-61
2022/02/08 08:54:58;;;;;;;11.23;3.92;;;;;;;5.38;81.00;101465.25;10311004;28;20042;-62
2022/02/08 09:00:03;;;;;;;11.98;5.78;;;;;;;5.44;80.48;101462.38;10306781;28;20065;-62
2022/02/08 09:05:10;;;;;;;10.85;4.30;;;;;;;5.71;79.71;101470.13;10316718;28;20052;-62
2022/02/08 09:10:16;;;;;;;12.02;4.75;;;;;;;5.62;79.08;101437.84;10306512;28;20062;-60
2022/02/08 09:15:47;;;;;;;7.45;3.78;;;;;;;5.78;79.36;101472.44;10312967;28;20052;-61
2022/02/08 09:21:17;;;;;;;10.70;4.07;;;;;;;5.74;79.03;101460.28;10324070;28;20061;-62
2022/02/08 09:31:31;;;;;;;11.32;4.30;;;;;;;5.92;78.56;101471.00;10312672;28;20049;-62
2022/02/08 09:36:32;;;;;;;11.98;4.55;;;;;;;5.85;78.85;101486.25;10316264;28;20053;-61
2022/02/08 09:41:34;;;;;;;12.40;3.95;;;;;;;6.00;78.54;101490.97;10314647;28;20046;-60
2022/02/08 09:46:37;;;;;;;15.40;4.78;;;;;;;6.10;78.10;101487.94;10310211;28;20053;-62
2022/02/08 09:51:44;;;;;;;9.27;4.13;;;;;;;6.19;77.73;101484.88;10310956;28;20070;-64
2022/02/08 09:56:46;;;;;;;8.02;4.18;;;;;;;6.27;77.72;101495.97;10309029;28;20065;-64
2022/02/08 10:01:52;;;;;;;9.48;3.92;;;;;;;6.26;77.11;101501.34;10306782;28;20178;-61
2022/02/08 10:06:53;;;;;;;11.45;4.50;;;;;;;6.34;77.37;101494.81;10306628;28;20065;-66
2022/02/08 10:11:57;;;;;;;10.07;4.10;;;;;;;6.52;76.41;101476.41;10316715;28;20091;-62
2022/02/08 10:22:29;;;;;;;11.52;4.50;;;;;;;6.58;76.81;101497.31;10306014;28;20042;-61
2022/02/08 10:37:37;;;;;;;8.68;4.20;;;;;;;6.59;77.56;101496.41;10302022;28;20046;-61
2022/02/08 10:38:00;;;;;;;9.90;4.35;;;;;;;6.59;78.20;101499.03;10308209;28;20134;-61
2022/02/08 10:43:04;;;;;;;6.25;3.13;;;;;;;6.73;77.93;101490.47;10318802;28;20058;-61
2022/02/08 10:48:08;;;;;;;9.75;3.38;;;;;;;6.72;78.55;101483.47;10337130;28;20869;-62
2022/02/08 10:53:12;;;;;;;8.52;2.80;;;;;;;6.81;79.01;101492.78;10314477;28;20476;-61
2022/02/08 11:03:51;;;;;;;8.70;3.50;;;;;;;6.90;79.30;101487.06;10305103;28;20056;-61
2022/02/08 11:09:18;;;;;;;7.07;3.33;;;;;;;6.95;79.83;101500.97;10310505;28;20064;-62
2022/02/08 11:14:42;;;;;;;5.80;3.13;;;;;;;7.06;79.95;101481.94;10304214;28;20057;-62
2022/02/08 11:25:01;;;;;;;8.82;3.72;;;;;;;7.21;80.53;101469.78;10311480;28;20050;-61
2022/02/08 11:30:11;;;;;;;7.68;3.58;;;;;;;7.28;80.57;101465.91;10312253;28;20057;-63
2022/02/08 11:42:32;;;;;;;4.95;2.67;;;;;;;7.23;79.89;101450.22;10324419;28;20582;-64
2022/02/08 11:46:29;;;;;;;7.25;2.65;;;;;;;7.43;80.00;101449.28;10319804;28;20046;-63
2022/02/08 12:07:35;;;;;;;6.43;2.40;;;;;;;7.31;79.36;101422.50;10317510;28;20056;-61
2022/02/08 12:29:59;;;;;;;4.65;2.72;;;;;;;7.43;82.51;101433.38;10315718;28;20626;-62
2022/02/08 12:34:44;;;;;;;7.82;3.63;;;;;;;7.59;81.93;101435.28;10311651;28;20052;-65
2022/02/08 12:48:28;;;;;;;4.68;2.25;;;;;;;7.59;81.52;101428.19;10314108;28;20050;-60
2022/02/08 12:55:44;;;;;;;5.40;2.28;;;;;;;7.67;80.59;101434.91;10313888;28;20079;-61
2022/02/08 13:01:13;;;;;;;5.90;2.50;;;;;;;7.58;80.57;101401.75;10311636;28;20145;-61
2022/02/08 15:08:25;;;;;;;5.20;3.45;;;;;;;7.73;82.92;101419.56;10325946;28;20045;-63
2022/02/08 15:13:27;;;;;;;5.38;3.80;;;;;;;7.65;83.80;101402.31;10304236;28;20749;-62
2022/02/08 15:18:44;;;;;;;6.95;3.88;;;;;;;7.68;84.24;101421.56;10314339;28;21939;-63
2022/02/08 15:23:46;;;;;;;7.03;4.15;;;;;;;7.65;84.01;101416.41;10307054;28;20408;-62
2022/02/08 15:28:48;;;;;;;11.23;5.07;;;;;;;7.54;84.46;101397.56;10313097;28;20049;-62
2022/02/08 15:33:50;;;;;;;8.60;3.75;;;;;;;7.52;84.48;101391.47;10302490;28;20133;-62
2022/02/08 15:38:54;;;;;;;7.57;3.75;;;;;;;7.67;84.81;101425.19;10321432;28;20141;-61
2022/02/08 15:43:55;;;;;;;6.47;3.95;;;;;;;7.60;85.20;101434.34;10311725;28;20064;-62
2022/02/08 15:48:57;;;;;;;4.85;3.42;;;;;;;7.57;85.66;101439.81;10305368;28;20054;-63
2022/02/08 16:09:46;;;;;;;4.95;3.67;;;;;;;7.65;85.96;101424.38;10316571;28;20136;-61
2022/02/08 16:15:05;;;;;;;7.18;3.80;;;;;;;7.63;86.23;101431.56;10314892;28;20082;-61
2022/02/08 16:20:16;;;;;;;5.25;4.05;;;;;;;7.60;86.85;101431.69;10311648;28;20062;-62
2022/02/08 16:31:02;;;;;;;4.68;4.13;;;;;;;7.71;86.51;101441.78;10305631;28;20064;-61
2022/02/08 16:57:36;;;;;;;9.20;3.78;;;;;;;7.89;85.13;101458.56;10294482;28;20061;-62
2022/02/08 17:02:40;;;;;;;6.75;3.97;;;;;;;7.84;84.82;101444.69;10346517;28;20060;-64
2022/02/08 17:07:42;;;;;;;5.07;4.05;;;;;;;7.88;84.81;101456.81;10344178;28;20053;-61
2022/02/08 17:12:55;;;;;;;5.78;4.43;;;;;;;7.88;84.88;101454.19;10318667;28;20054;-62
2022/02/08 17:49:59;;;;;;;6.22;4.97;;;;;;;7.99;84.11;101482.78;10308819;28;20970;-62
2022/02/08 17:55:00;;;;;;;8.07;4.50;;;;;;;8.01;84.09;101465.88;10299665;28;20423;-61
2022/02/08 18:00:04;;;;;;;6.13;4.97;;;;;;;7.99;84.12;101478.38;10308342;28;20058;-62
2022/02/08 18:05:10;;;;;;;8.60;5.32;;;;;;;7.93;84.31;101463.63;10305896;28;20145;-62
2022/02/08 18:10:13;;;;;;;7.97;4.47;;;;;;;7.97;83.72;101469.63;10317196;28;20061;-61
2022/02/08 18:15:14;;;;;;;6.10;5.07;;;;;;;8.05;83.52;101467.44;10341425;28;20136;-62
2022/02/08 18:54:30;;;;;;;4.45;3.80;;;;;;;8.20;83.02;101496.81;10305818;28;20683;-63
2022/02/08 18:57:29;;;;;;;4.97;4.20;;;;;;;8.24;82.95;101498.34;10303216;28;20501;-63
2022/02/08 19:13:23;;;;;;;4.50;4.10;;;;;;;8.22;83.22;101514.34;10300858;28;20060;-61
2022/02/08 19:23:20;;;;;;;6.20;3.77;;;;;;;8.24;83.11;101508.94;10309123;28;20063;-62
2022/02/08 19:28:21;;;;;;;4.60;4.07;;;;;;;8.17;83.17;101500.47;10324789;28;20049;-63
2022/02/08 19:33:25;;;;;;;6.53;4.05;;;;;;;8.06;83.54;101501.00;10340186;28;20050;-61
2022/02/08 19:38:27;;;;;;;6.30;4.43;;;;;;;8.10;83.53;101491.94;10340174;28;20057;-61
2022/02/08 19:43:28;;;;;;;6.75;4.80;;;;;;;8.27;82.94;101503.47;10340481;28;20126;-61
2022/02/08 19:48:30;;;;;;;6.32;4.93;;;;;;;8.35;82.81;101522.53;10346884;28;20057;-62
2022/02/08 19:53:33;;;;;;;6.07;4.68;;;;;;;8.37;82.78;101528.63;10344911;28;20076;-62
2022/02/08 19:58:35;;;;;;;5.55;5.05;;;;;;;8.42;82.43;101518.66;10345401;28;20514;-63
2022/02/08 20:03:42;;;;;;;6.20;5.28;;;;;;;8.32;82.65;101517.38;10344643;28;20465;-62
2022/02/08 20:08:44;;;;;;;6.00;5.40;;;;;;;8.14;83.48;101509.41;10314389;28;20053;-65
2022/02/08 20:13:52;;;;;;;5.35;4.88;;;;;;;8.16;83.46;101495.22;10305967;28;20065;-61
2022/02/08 20:18:57;;;;;;;6.50;4.60;;;;;;;8.24;83.78;101503.66;10312685;28;20559;-63
2022/02/08 20:24:02;;;;;;;5.35;4.85;;;;;;;8.27;83.53;101498.19;10306163;28;20068;-63
2022/02/08 20:29:03;;;;;;;5.55;4.50;;;;;;;8.21;83.91;101488.75;10312002;28;20057;-61
2022/02/08 20:34:05;;;;;;;5.70;4.90;;;;;;;8.16;84.33;101487.28;10314762;28;20057;-60
2022/02/08 20:39:08;;;;;;;6.63;5.00;;;;;;;8.08;84.25;101498.28;10311831;28;20841;-61
2022/02/08 20:44:16;;;;;;;4.85;4.40;;;;;;;8.05;84.51;101490.47;10305632;28;20054;-62
2022/02/08 20:49:18;;;;;;;4.53;4.07;;;;;;;8.13;84.80;101491.78;10310278;28;20139;-62
2022/02/08 20:54:25;;;;;;;6.72;5.05;;;;;;;8.07;84.49;101481.47;10302431;28;20089;-63
2022/02/08 20:59:29;;;;;;;4.97;4.35;;;;;;;8.06;84.98;101479.78;10309215;28;20499;-63
2022/02/08 21:05:02;;;;;;;5.40;4.90;;;;;;;8.01;85.04;101481.78;10302282;28;20135;-63
2022/02/08 21:10:04;;;;;;;6.25;4.82;;;;;;;8.07;84.85;101486.78;10314487;28;20129;-62
2022/02/08 21:15:08;;;;;;;4.70;4.22;;;;;;;8.11;84.80;101498.97;10312004;28;20064;-63
2022/02/08 21:20:10;;;;;;;5.10;4.60;;;;;;;8.18;84.46;101491.56;10306971;28;20062;-63
2022/02/08 21:25:11;;;;;;;5.90;4.30;;;;;;;8.03;84.66;101474.63;10305556;28;20061;-61
2022/02/08 21:51:22;;;;;;;4.30;3.90;;;;;;;8.24;84.11;101506.28;10296175;28;20528;-64
2022/02/08 21:56:24;;;;;;;5.50;4.32;;;;;;;8.26;83.96;101480.56;10311163;28;20069;-62
2022/02/08 22:01:25;;;;;;;4.25;3.85;;;;;;;8.22;84.21;101502.88;10311496;28;20419;-62
2022/02/08 22:06:27;;;;;;;4.82;4.30;;;;;;;8.32;84.03;101497.00;10314602;28;20791;-63
2022/02/08 22:18:01;;;;;;;4.88;4.40;;;;;;;8.32;83.84;101493.50;10271088;28;20760;-61
2022/02/08 22:22:59;;;;;;;4.60;4.20;;;;;;;8.20;84.23;101502.09;10309234;28;20057;-62
2022/02/08 22:28:23;;;;;;;5.05;4.53;;;;;;;8.29;84.18;101512.25;10308552;28;20128;-61
2022/02/08 22:33:31;;;;;;;4.85;4.45;;;;;;;8.26;83.91;101496.47;10310512;28;20051;-63
2022/02/08 22:38:38;;;;;;;5.80;4.50;;;;;;;8.35;83.75;101496.00;10309919;28;20048;-62
2022/02/08 22:43:47;;;;;;;5.43;4.20;;;;;;;8.42;83.70;101518.66;10314706;28;20050;-63
2022/02/08 22:48:48;;;;;;;5.35;4.55;;;;;;;8.38;83.24;101505.63;10305640;28;20053;-62
2022/02/08 22:53:50;;;;;;;6.15;4.60;;;;;;;8.45;82.99;101507.03;10311552;28;20052;-63
2022/02/08 22:58:52;;;;;;;4.43;4.03;;;;;;;8.57;82.39;101516.16;10306913;28;20046;-62
2022/02/08 23:03:54;;;;;;;5.30;4.25;;;;;;;8.65;82.10;101519.28;10309803;28;20060;-62
2022/02/08 23:08:55;;;;;;;4.03;3.63;;;;;;;8.66;81.86;101510.34;10308204;28;20050;-64
2022/02/08 23:14:08;;;;;;;5.15;3.88;;;;;;;8.64;81.44;101509.59;10315651;28;20049;-63
2022/02/08 23:40:30;;;;;;;4.13;3.72;;;;;;;8.66;81.40;101502.41;10314840;28;20416;-63
2022/02/08 23:45:32;;;;;;;3.67;3.33;;;;;;;8.58;81.51;101501.94;10317825;28;20620;-62
2022/02/08 23:50:47;;;;;;;3.67;3.08;;;;;;;8.57;81.53;101506.41;10315941;28;20053;-63
2022/02/08 23:55:56;;;;;;;4.43;2.92;;;;;;;8.44;81.88;101495.56;10315765;28;20056;-62
